Time;durP1;ratioP1;P1;durP2;ratioP2;P2;SDS_P1;SDS_P2;PMS_P1;PMS_P2;Temp;Humidity;BMP_temperature;BMP_pressure;BME280_temperature;BME280_humidity;BME280_pressure;Samples;Min_cycle;Max_cycle;Signal;HPM_P1;HPM_P2
2021/10/08 00:00:40;;;;;;;16.42;11.73;;;;;;;15.76;100.00;97259.72;5001046;28;20122;-53
2021/10/08 00:03:09;;;;;;;16.40;11.60;;;;;;;16.05;100.00;97258.53;5002826;28;20066;-47
2021/10/08 00:05:37;;;;;;;15.55;11.20;;;;;;;16.12;100.00;97262.22;5002068;28;20084;-52
2021/10/08 00:08:05;;;;;;;15.93;11.35;;;;;;;15.97;100.00;97267.31;5000836;28;20072;-48
2021/10/08 00:10:34;;;;;;;16.73;11.60;;;;;;;16.28;100.00;97254.31;4999551;28;20120;-55
2021/10/08 00:13:04;;;;;;;15.18;11.73;;;;;;;16.14;100.00;97260.25;4996849;28;20062;-50
2021/10/08 00:15:32;;;;;;;14.73;10.60;;;;;;;15.94;100.00;97256.16;5000530;28;20080;-51
2021/10/08 00:18:01;;;;;;;12.52;10.57;;;;;;;15.84;100.00;97261.59;5003521;28;20477;-49
2021/10/08 00:20:30;;;;;;;13.90;10.80;;;;;;;15.97;100.00;97269.97;5000939;28;21776;-48
2021/10/08 00:22:59;;;;;;;14.43;10.75;;;;;;;15.64;100.00;97266.25;5001409;28;20093;-51
2021/10/08 00:25:27;;;;;;;16.10;11.02;;;;;;;16.22;100.00;97256.78;5004011;28;20085;-50
2021/10/08 00:27:55;;;;;;;16.48;11.27;;;;;;;16.36;100.00;97257.00;5001449;28;20065;-51
2021/10/08 00:30:25;;;;;;;14.40;10.82;;;;;;;16.08;100.00;97261.69;4997218;28;20065;-52
2021/10/08 00:32:54;;;;;;;13.45;10.50;;;;;;;16.61;100.00;97257.88;5000678;28;20066;-54
2021/10/08 00:35:22;;;;;;;18.15;10.20;;;;;;;16.51;100.00;97264.34;5000822;28;20070;-54
2021/10/08 00:37:51;;;;;;;16.70;11.35;;;;;;;15.92;100.00;97268.75;5000719;28;20085;-51
2021/10/08 00:40:21;;;;;;;14.57;11.20;;;;;;;15.94;100.00;97261.47;5003782;28;20432;-54
2021/10/08 00:42:50;;;;;;;14.30;11.50;;;;;;;15.77;100.00;97261.38;4999610;28;20074;-51
2021/10/08 00:45:18;;;;;;;12.65;10.40;;;;;;;16.44;100.00;97261.50;4993803;28;20065;-55
2021/10/08 00:47:57;;;;;;;16.40;12.13;;;;;;;16.18;100.00;97258.09;4996514;28;20069;-52
2021/10/08 00:50:26;;;;;;;14.40;11.05;;;;;;;15.82;100.00;97261.72;5002999;28;20061;-54
2021/10/08 00:52:55;;;;;;;14.43;11.60;;;;;;;15.85;100.00;97248.13;5001054;28;20070;-49
2021/10/08 00:55:24;;;;;;;17.38;12.25;;;;;;;16.27;100.00;97249.97;4999054;28;20540;-54
2021/10/08 00:57:52;;;;;;;13.20;11.00;;;;;;;16.47;100.00;97261.19;5000874;28;20066;-54
2021/10/08 01:00:20;;;;;;;17.20;11.32;;;;;;;16.51;100.00;97256.38;4996440;28;20074;-50
2021/10/08 01:02:49;;;;;;;17.40;11.75;;;;;;;16.16;100.00;97258.25;4999763;28;20062;-52
2021/10/08 01:05:19;;;;;;;15.95;11.68;;;;;;;16.00;100.00;97245.72;5000826;28;20085;-48
2021/10/08 01:07:49;;;;;;;16.95;11.55;;;;;;;16.59;100.00;97249.25;4997869;28;20085;-53
2021/10/08 01:10:17;;;;;;;16.45;12.13;;;;;;;16.37;100.00;97252.50;5004774;28;20594;-52
2021/10/08 01:12:46;;;;;;;20.65;11.07;;;;;;;16.20;100.00;97248.09;4998400;28;20085;-52
2021/10/08 01:15:14;;;;;;;18.88;12.48;;;;;;;16.14;100.00;97244.28;4999226;28;20065;-52
2021/10/08 01:17:43;;;;;;;17.27;12.57;;;;;;;15.77;100.00;97256.06;5002227;28;20113;-52
2021/10/08 01:20:13;;;;;;;19.25;12.50;;;;;;;16.48;100.00;97246.03;4997810;28;20069;-54
2021/10/08 01:22:41;;;;;;;19.08;12.88;;;;;;;16.18;100.00;97248.28;5002726;28;20085;-51
2021/10/08 01:25:10;;;;;;;18.58;12.10;;;;;;;15.97;100.00;97243.38;4998301;28;21748;-52
2021/10/08 01:27:38;;;;;;;18.90;13.43;;;;;;;16.42;100.00;97238.72;4997152;28;20127;-51
2021/10/08 01:30:08;;;;;;;21.25;12.55;;;;;;;16.29;100.00;97237.34;5001434;28;20081;-52
2021/10/08 01:32:38;;;;;;;19.75;12.45;;;;;;;16.34;100.00;97242.16;4999479;28;20073;-51
2021/10/08 01:35:07;;;;;;;18.77;12.45;;;;;;;16.06;100.00;97237.06;4998485;28;20073;-51
2021/10/08 01:37:37;;;;;;;19.20;12.27;;;;;;;16.23;100.00;97240.63;5001516;28;20082;-51
2021/10/08 01:40:07;;;;;;;18.27;12.80;;;;;;;16.30;100.00;97233.66;4998878;28;20069;-55
2021/10/08 01:42:35;;;;;;;16.90;12.70;;;;;;;16.13;100.00;97231.94;5003025;28;20521;-50
2021/10/08 01:45:04;;;;;;;19.50;12.82;;;;;;;16.74;100.00;97230.81;5001755;28;20062;-55
2021/10/08 01:47:33;;;;;;;17.42;12.70;;;;;;;16.83;100.00;97234.34;5003935;28;20069;-50
2021/10/08 01:50:01;;;;;;;19.52;12.73;;;;;;;16.84;100.00;97236.81;5002685;28;20097;-48
2021/10/08 01:52:30;;;;;;;19.63;13.07;;;;;;;16.91;100.00;97231.66;5001857;28;20092;-49
2021/10/08 01:54:59;;;;;;;16.35;12.20;;;;;;;16.71;100.00;97235.59;5002220;28;20077;-47
2021/10/08 01:57:28;;;;;;;16.88;12.40;;;;;;;16.79;100.00;97227.66;5001569;28;20072;-51
2021/10/08 01:59:56;;;;;;;16.23;11.90;;;;;;;16.97;100.00;97230.19;4997660;28;20080;-54
2021/10/08 02:02:25;;;;;;;16.50;12.40;;;;;;;17.09;100.00;97226.19;5005569;28;20495;-52
2021/10/08 02:04:53;;;;;;;20.23;13.63;;;;;;;16.34;100.00;97228.84;5002517;28;20085;-53
2021/10/08 02:07:21;;;;;;;18.13;12.90;;;;;;;17.04;100.00;97228.53;5002541;28;20090;-53
2021/10/08 02:09:50;;;;;;;15.48;12.43;;;;;;;17.13;100.00;97235.50;5002758;28;20078;-53
2021/10/08 02:12:20;;;;;;;20.08;12.90;;;;;;;16.93;100.00;97226.16;5003307;28;20085;-49
2021/10/08 02:14:48;;;;;;;17.52;12.38;;;;;;;17.06;100.00;97232.66;5002194;28;20073;-48
2021/10/08 02:17:17;;;;;;;17.15;12.68;;;;;;;16.84;100.00;97233.34;4995526;28;20070;-51
2021/10/08 02:19:45;;;;;;;17.50;12.88;;;;;;;16.76;100.00;97234.16;5000994;28;20088;-47
2021/10/08 02:22:14;;;;;;;22.27;12.82;;;;;;;16.70;100.00;97233.94;5002708;28;20078;-51
2021/10/08 02:24:43;;;;;;;20.17;13.00;;;;;;;16.22;100.00;97228.34;5002130;28;20065;-50
2021/10/08 02:27:12;;;;;;;17.10;12.98;;;;;;;16.99;100.00;97234.31;5000718;28;20138;-53
2021/10/08 02:29:42;;;;;;;17.63;13.52;;;;;;;17.02;100.00;97231.34;5002451;28;20076;-57
2021/10/08 02:32:10;;;;;;;18.42;12.30;;;;;;;16.75;100.00;97237.81;5001944;28;20069;-55
2021/10/08 02:34:38;;;;;;;17.88;12.20;;;;;;;16.80;100.00;97240.81;4999197;28;20134;-55
2021/10/08 02:37:07;;;;;;;19.13;13.32;;;;;;;16.10;100.00;97230.47;5005097;28;20093;-52
2021/10/08 02:39:35;;;;;;;18.80;12.65;;;;;;;16.92;100.00;97233.31;5001243;28;20076;-52
2021/10/08 02:42:05;;;;;;;19.75;13.35;;;;;;;16.55;100.00;97234.59;4998229;28;20472;-50
2021/10/08 02:44:34;;;;;;;19.60;13.77;;;;;;;15.85;100.00;97236.66;5003891;28;20072;-53
2021/10/08 02:47:04;;;;;;;18.65;12.38;;;;;;;16.03;100.00;97233.91;5004618;28;20096;-47
2021/10/08 02:49:33;;;;;;;16.60;12.27;;;;;;;15.97;100.00;97235.38;5001850;28;20077;-56
2021/10/08 02:52:02;;;;;;;19.98;13.23;;;;;;;16.24;100.00;97233.47;4997864;28;20075;-54
2021/10/08 02:54:30;;;;;;;18.65;12.70;;;;;;;16.96;100.00;97233.81;5000818;28;20080;-53
2021/10/08 02:56:59;;;;;;;17.70;13.80;;;;;;;16.75;100.00;97236.97;4999345;28;20084;-50
2021/10/08 02:59:28;;;;;;;17.83;12.95;;;;;;;16.66;100.00;97237.94;4999871;28;21434;-47
2021/10/08 03:01:56;;;;;;;17.30;12.50;;;;;;;16.54;100.00;97232.06;5005150;28;20073;-51
2021/10/08 03:04:26;;;;;;;19.88;13.05;;;;;;;16.41;100.00;97234.38;5005083;28;20092;-52
2021/10/08 03:06:56;;;;;;;17.40;12.60;;;;;;;16.52;100.00;97236.75;4998321;28;20065;-49
2021/10/08 03:09:25;;;;;;;16.70;12.55;;;;;;;17.05;100.00;97235.50;5000120;28;20073;-50
2021/10/08 03:11:53;;;;;;;17.85;12.65;;;;;;;16.92;100.00;97227.16;5002997;28;20073;-52
2021/10/08 03:14:22;;;;;;;17.88;12.68;;;;;;;17.04;100.00;97229.34;5000675;28;20574;-50
2021/10/08 03:16:50;;;;;;;16.98;11.98;;;;;;;17.42;100.00;97220.84;5002878;28;20639;-52
2021/10/08 03:19:18;;;;;;;18.15;12.80;;;;;;;17.03;100.00;97230.38;5004011;28;20480;-57
2021/10/08 03:21:48;;;;;;;20.25;12.85;;;;;;;17.13;100.00;97232.00;5001569;28;20069;-54
2021/10/08 03:24:17;;;;;;;18.60;12.90;;;;;;;17.15;100.00;97225.50;4999525;28;20078;-56
2021/10/08 03:26:45;;;;;;;17.23;12.38;;;;;;;16.86;100.00;97231.31;4999269;28;20068;-51
2021/10/08 03:29:13;;;;;;;16.55;12.57;;;;;;;16.83;100.00;97229.00;4999273;28;20066;-50
2021/10/08 03:31:42;;;;;;;16.25;12.07;;;;;;;17.19;100.00;97228.69;5005411;28;20081;-49
2021/10/08 03:34:10;;;;;;;13.90;10.88;;;;;;;17.08;100.00;97229.84;4999728;28;20522;-52
2021/10/08 03:36:43;;;;;;;16.23;11.77;;;;;;;17.28;100.00;97228.50;5001499;28;20513;-49
2021/10/08 03:39:18;;;;;;;16.38;11.55;;;;;;;17.16;100.00;97226.34;5001302;28;20069;-51
2021/10/08 03:41:46;;;;;;;16.77;11.68;;;;;;;17.52;100.00;97216.16;4995376;28;20473;-56
2021/10/08 03:44:15;;;;;;;17.90;11.70;;;;;;;17.48;100.00;97223.66;4996914;28;20062;-48
2021/10/08 03:46:46;;;;;;;15.25;11.48;;;;;;;17.01;100.00;97229.69;4998937;28;20077;-54
2021/10/08 03:49:16;;;;;;;13.85;11.50;;;;;;;17.35;100.00;97233.19;4998652;28;21370;-49
2021/10/08 03:51:46;;;;;;;16.67;11.00;;;;;;;17.07;100.00;97228.19;5003292;28;20077;-53
2021/10/08 03:54:16;;;;;;;;;;;;;;;17.07;100.00;97226.34;5002128;28;20069;-51
2021/10/08 03:56:45;;;;;;;17.30;10.95;;;;;;;16.91;100.00;97231.66;4999582;28;19949;-56
2021/10/08 03:59:14;;;;;;;14.65;10.73;;;;;;;16.97;100.00;97235.53;4998454;28;20073;-52
2021/10/08 04:01:45;;;;;;;15.23;11.52;;;;;;;16.53;100.00;97236.56;4998995;28;20077;-51
2021/10/08 04:04:14;;;;;;;15.00;11.75;;;;;;;16.71;100.00;97230.28;5003473;28;20085;-50
2021/10/08 04:06:42;;;;;;;17.30;11.38;;;;;;;16.54;100.00;97232.91;5001437;28;20066;-50
2021/10/08 04:09:11;;;;;;;17.08;11.80;;;;;;;16.02;100.00;97238.38;5003861;28;20717;-52
2021/10/08 04:11:40;;;;;;;14.65;10.82;;;;;;;15.94;100.00;97233.03;4999308;28;20097;-54
2021/10/08 04:14:09;;;;;;;15.25;11.43;;;;;;;15.97;100.00;97230.06;5005100;28;20069;-48
2021/10/08 04:16:38;;;;;;;15.80;11.07;;;;;;;15.98;100.00;97236.22;5003760;28;20097;-48
2021/10/08 04:19:07;;;;;;;16.30;11.30;;;;;;;15.96;100.00;97236.34;4997712;28;20058;-58
2021/10/08 04:21:35;;;;;;;14.25;11.25;;;;;;;16.22;100.00;97236.31;5001734;28;20065;-49
2021/10/08 04:24:04;;;;;;;16.02;10.60;;;;;;;15.78;100.00;97230.28;4999814;28;20076;-55
2021/10/08 04:26:33;;;;;;;17.13;11.63;;;;;;;16.26;100.00;97234.16;5001300;28;20065;-48
2021/10/08 04:29:02;;;;;;;14.75;11.45;;;;;;;15.69;100.00;97236.53;5002164;28;20089;-49
2021/10/08 04:31:31;;;;;;;14.05;11.52;;;;;;;15.67;100.00;97228.75;5000942;28;20085;-48
2021/10/08 04:33:59;;;;;;;16.02;11.27;;;;;;;15.62;100.00;97233.66;5000902;28;20077;-49
2021/10/08 04:36:28;;;;;;;15.00;11.57;;;;;;;16.04;100.00;97222.28;4996153;28;20070;-55
2021/10/08 04:38:56;;;;;;;18.13;11.30;;;;;;;15.93;100.00;97228.69;5004550;28;20693;-55
2021/10/08 04:41:25;;;;;;;14.70;12.43;;;;;;;15.99;100.00;97227.22;5000271;28;20076;-57
2021/10/08 04:43:53;;;;;;;15.05;11.82;;;;;;;15.56;100.00;97237.78;5000926;28;20555;-52
2021/10/08 04:46:23;;;;;;;14.73;10.88;;;;;;;16.14;100.00;97230.97;5000317;28;20086;-54
2021/10/08 04:48:51;;;;;;;14.05;10.88;;;;;;;16.50;100.00;97228.06;5000095;28;20078;-53
2021/10/08 04:51:20;;;;;;;17.60;11.27;;;;;;;16.11;100.00;97232.13;4998111;28;20077;-47
2021/10/08 04:53:48;;;;;;;16.77;11.25;;;;;;;16.29;100.00;97232.00;4999207;28;20517;-47
2021/10/08 04:56:16;;;;;;;18.20;12.30;;;;;;;16.03;100.00;97231.25;4997836;28;20066;-53
2021/10/08 04:58:45;;;;;;;18.48;11.90;;;;;;;16.10;100.00;97235.78;5001464;28;20528;-49
2021/10/08 05:01:13;;;;;;;15.75;11.90;;;;;;;16.00;100.00;97234.22;4999230;28;20082;-50
2021/10/08 05:03:45;;;;;;;16.20;12.05;;;;;;;16.17;100.00;97225.31;4999275;28;20078;-53
2021/10/08 05:06:14;;;;;;;17.67;11.65;;;;;;;15.94;100.00;97232.22;5002075;28;20070;-53
2021/10/08 05:08:42;;;;;;;18.63;12.48;;;;;;;16.05;100.00;97229.25;5000665;28;20559;-53
2021/10/08 05:11:10;;;;;;;14.57;11.73;;;;;;;16.20;100.00;97234.81;5005785;28;20464;-48
2021/10/08 05:13:39;;;;;;;14.88;11.38;;;;;;;16.10;100.00;97235.78;5002186;28;20078;-52
2021/10/08 05:16:07;;;;;;;14.77;11.82;;;;;;;16.37;100.00;97234.69;4998611;28;20565;-51
2021/10/08 05:18:36;;;;;;;17.13;12.48;;;;;;;15.88;100.00;97241.66;5005519;28;20069;-56
2021/10/08 05:21:06;;;;;;;16.52;12.23;;;;;;;15.84;100.00;97233.16;5006976;28;20069;-57
2021/10/08 05:23:34;;;;;;;20.67;12.55;;;;;;;16.00;100.00;97232.41;5000303;28;20161;-50
2021/10/08 05:26:03;;;;;;;16.13;12.23;;;;;;;16.11;100.00;97228.63;5004128;28;20072;-54
2021/10/08 05:28:31;;;;;;;19.02;12.52;;;;;;;15.31;100.00;97238.59;5004092;28;20078;-52
2021/10/08 05:31:00;;;;;;;20.10;12.75;;;;;;;16.31;100.00;97232.69;5003658;28;20057;-47
2021/10/08 05:33:28;;;;;;;16.35;12.13;;;;;;;15.82;100.00;97235.13;5006142;28;20066;-49
2021/10/08 05:35:57;;;;;;;16.20;12.77;;;;;;;16.09;100.00;97231.44;5004542;28;20073;-49
2021/10/08 05:38:27;;;;;;;16.05;12.30;;;;;;;15.96;100.00;97230.22;4999522;28;20476;-54
2021/10/08 05:40:57;;;;;;;16.08;12.38;;;;;;;16.25;100.00;97235.16;5001933;28;20125;-47
2021/10/08 05:43:26;;;;;;;16.38;13.25;;;;;;;16.67;100.00;97237.78;5001370;28;20042;-49
2021/10/08 05:45:54;;;;;;;18.02;13.25;;;;;;;16.67;100.00;97236.94;5002295;28;20034;-53
2021/10/08 05:48:23;;;;;;;16.17;13.07;;;;;;;16.22;100.00;97238.97;4998474;28;20069;-54
2021/10/08 05:50:52;;;;;;;18.20;12.25;;;;;;;16.65;100.00;97242.41;4996754;28;20072;-48
2021/10/08 05:53:20;;;;;;;14.85;12.40;;;;;;;16.52;100.00;97242.91;4999558;28;20543;-51
2021/10/08 05:55:50;;;;;;;15.85;12.68;;;;;;;16.76;100.00;97236.81;5005511;28;20074;-53
2021/10/08 05:58:18;;;;;;;15.82;12.40;;;;;;;16.80;100.00;97240.81;5003825;28;20076;-58
2021/10/08 06:00:47;;;;;;;19.40;13.15;;;;;;;16.37;100.00;97247.16;5001676;28;20066;-56
2021/10/08 06:03:15;;;;;;;15.50;12.05;;;;;;;16.51;100.00;97246.53;5000379;28;20548;-54
2021/10/08 06:05:44;;;;;;;16.73;12.68;;;;;;;16.17;100.00;97246.59;5002807;28;20065;-55
2021/10/08 06:08:12;;;;;;;17.20;12.55;;;;;;;16.15;100.00;97248.59;4997474;28;20089;-52
2021/10/08 06:10:41;;;;;;;18.27;12.50;;;;;;;16.79;100.00;97244.50;5005511;28;20085;-58
2021/10/08 06:13:11;;;;;;;18.33;12.57;;;;;;;16.69;100.00;97249.09;5005069;28;20459;-54
2021/10/08 06:15:39;;;;;;;15.32;12.32;;;;;;;16.68;100.00;97246.59;5004959;28;20062;-55
2021/10/08 06:18:08;;;;;;;20.33;12.90;;;;;;;16.70;100.00;97256.09;5000383;28;20069;-55
2021/10/08 06:20:36;;;;;;;17.00;12.15;;;;;;;16.64;100.00;97262.06;5005706;28;20072;-59
2021/10/08 06:23:05;;;;;;;16.45;11.55;;;;;;;16.68;100.00;97258.06;5000052;28;20081;-55
2021/10/08 06:25:33;;;;;;;16.13;11.85;;;;;;;16.75;100.00;97253.78;5003942;28;20089;-57
2021/10/08 06:28:02;;;;;;;17.02;12.68;;;;;;;16.77;100.00;97256.31;5002254;28;20486;-57
2021/10/08 06:30:32;;;;;;;16.13;12.60;;;;;;;16.43;100.00;97259.00;5003695;28;20069;-56
2021/10/08 06:33:01;;;;;;;17.55;11.80;;;;;;;16.37;100.00;97255.97;4999941;28;20065;-57
2021/10/08 06:35:32;;;;;;;19.77;12.10;;;;;;;16.72;100.00;97264.72;5002904;28;20085;-56
2021/10/08 06:38:00;;;;;;;21.13;12.07;;;;;;;16.35;100.00;97255.31;5002125;28;20572;-58
2021/10/08 06:40:29;;;;;;;20.38;12.50;;;;;;;16.50;100.00;97268.00;5005687;28;20099;-54
2021/10/08 06:42:58;;;;;;;15.38;11.65;;;;;;;16.57;100.00;97272.53;5002515;28;21885;-56
2021/10/08 06:45:28;;;;;;;17.27;12.23;;;;;;;16.41;100.00;97271.63;5001257;28;20201;-59
2021/10/08 06:47:58;;;;;;;19.50;12.65;;;;;;;16.01;100.00;97268.66;4995797;28;20069;-57
2021/10/08 06:50:27;;;;;;;17.92;12.32;;;;;;;16.55;100.00;97271.88;5003360;28;20070;-58
2021/10/08 06:52:56;;;;;;;17.33;12.82;;;;;;;16.72;100.00;97278.03;5003026;28;20083;-57
2021/10/08 06:55:24;;;;;;;19.02;12.88;;;;;;;16.43;100.00;97274.97;4995539;28;21549;-59
2021/10/08 06:57:53;;;;;;;17.23;12.43;;;;;;;16.67;100.00;97272.38;5001999;28;20066;-52
2021/10/08 07:00:23;;;;;;;15.15;12.60;;;;;;;16.83;100.00;97283.13;4996957;28;20485;-58
2021/10/08 07:02:53;;;;;;;16.35;12.45;;;;;;;16.60;100.00;97280.19;4996822;28;20447;-58
2021/10/08 07:05:24;;;;;;;16.75;12.90;;;;;;;17.30;100.00;97274.47;5003273;28;20476;-54
2021/10/08 07:07:54;;;;;;;19.83;12.52;;;;;;;17.24;100.00;97275.16;5006094;28;20077;-55
2021/10/08 07:10:22;;;;;;;18.75;12.40;;;;;;;17.21;100.00;97278.16;5003908;28;20556;-54
2021/10/08 07:12:51;;;;;;;18.25;12.70;;;;;;;17.13;100.00;97272.81;5000137;28;20062;-55
2021/10/08 07:15:19;;;;;;;19.00;13.15;;;;;;;17.05;100.00;97280.81;5003832;28;20065;-56
2021/10/08 07:17:49;;;;;;;16.98;12.98;;;;;;;17.13;100.00;97275.47;5004346;28;20689;-53
2021/10/08 07:20:21;;;;;;;18.40;12.77;;;;;;;17.05;100.00;97278.97;5000227;28;20690;-58
2021/10/08 07:22:52;;;;;;;17.45;12.82;;;;;;;16.87;100.00;97282.78;5005696;28;20034;-56
2021/10/08 07:25:23;;;;;;;18.45;12.50;;;;;;;17.30;100.00;97284.31;4999024;28;20512;-56
2021/10/08 07:27:52;;;;;;;16.90;13.10;;;;;;;17.47;100.00;97279.81;4998841;28;20073;-57
2021/10/08 07:30:20;;;;;;;19.67;13.07;;;;;;;17.20;100.00;97276.47;4997831;28;20636;-53
2021/10/08 07:32:52;;;;;;;17.27;13.10;;;;;;;17.05;100.00;97280.81;5002953;28;20069;-57
2021/10/08 07:35:21;;;;;;;20.10;13.70;;;;;;;17.55;100.00;97278.00;4995341;28;20072;-59
2021/10/08 07:37:51;;;;;;;18.02;12.60;;;;;;;17.38;100.00;97283.47;5000497;28;20081;-59
2021/10/08 07:40:19;;;;;;;21.75;13.02;;;;;;;16.33;100.00;97280.44;5003319;28;20085;-58
2021/10/08 07:42:48;;;;;;;19.55;13.25;;;;;;;16.78;100.00;97282.75;5004139;28;20579;-58
2021/10/08 07:45:16;;;;;;;17.45;13.40;;;;;;;16.63;100.00;97288.88;5002020;28;20069;-58
2021/10/08 07:47:45;;;;;;;19.38;14.27;;;;;;;17.21;100.00;97283.50;5000271;28;20069;-53
2021/10/08 07:50:14;;;;;;;19.75;14.93;;;;;;;17.25;100.00;97289.34;4997503;28;20120;-55
2021/10/08 07:52:42;;;;;;;19.17;14.05;;;;;;;17.25;100.00;97289.34;5003342;28;20084;-56
2021/10/08 07:55:13;;;;;;;18.30;13.98;;;;;;;16.62;100.00;97293.38;4997739;28;20077;-58
2021/10/08 07:57:41;;;;;;;19.92;15.10;;;;;;;16.74;100.00;97297.41;5000845;28;20093;-57
2021/10/08 08:00:13;;;;;;;21.42;14.82;;;;;;;16.87;100.00;97298.78;4996386;28;20454;-55
2021/10/08 08:02:42;;;;;;;20.52;14.10;;;;;;;16.82;100.00;97307.25;4996340;28;20066;-54
2021/10/08 08:05:11;;;;;;;21.40;16.17;;;;;;;16.48;100.00;97302.81;4997206;28;20078;-56
2021/10/08 08:07:40;;;;;;;21.70;15.18;;;;;;;17.40;100.00;97303.66;5003412;28;20089;-55
2021/10/08 08:10:10;;;;;;;20.38;15.02;;;;;;;17.36;100.00;97301.50;4997136;28;20061;-55
2021/10/08 08:12:40;;;;;;;22.25;14.90;;;;;;;16.75;100.00;97308.91;5001103;28;20563;-59
2021/10/08 08:15:10;;;;;;;20.83;16.17;;;;;;;17.25;100.00;97303.50;5001492;28;20081;-53
2021/10/08 08:17:38;;;;;;;23.88;16.40;;;;;;;17.60;100.00;97306.81;4997490;28;20065;-59
2021/10/08 08:20:09;;;;;;;23.13;16.70;;;;;;;17.05;100.00;97300.28;5004360;28;20090;-53
2021/10/08 08:22:37;;;;;;;21.50;15.82;;;;;;;17.29;100.00;97304.00;5001694;28;20086;-54
2021/10/08 08:25:07;;;;;;;24.40;17.38;;;;;;;16.75;100.00;97312.38;4998152;28;20061;-55
2021/10/08 08:27:35;;;;;;;22.88;17.00;;;;;;;16.88;100.00;97297.78;5000771;28;20065;-58
2021/10/08 08:30:07;;;;;;;27.00;18.33;;;;;;;16.77;100.00;97312.25;4998556;28;20463;-58
2021/10/08 08:32:35;;;;;;;26.15;18.65;;;;;;;17.24;100.00;97298.31;5001541;28;20084;-53
2021/10/08 08:35:05;;;;;;;36.40;24.35;;;;;;;17.20;100.00;97305.81;4996596;28;20086;-57
2021/10/08 08:37:34;;;;;;;36.05;26.52;;;;;;;17.41;100.00;97294.69;5005096;28;20084;-54
2021/10/08 08:40:05;;;;;;;26.25;19.95;;;;;;;17.40;100.00;97298.31;4999823;28;20524;-58
2021/10/08 08:42:34;;;;;;;29.00;19.88;;;;;;;16.75;100.00;97301.72;4997696;28;20074;-58
2021/10/08 08:45:07;;;;;;;25.15;18.83;;;;;;;17.20;100.00;97295.13;5001083;28;20668;-56
2021/10/08 08:47:36;;;;;;;26.35;18.58;;;;;;;17.21;100.00;97296.84;4998979;28;20093;-59
2021/10/08 08:50:06;;;;;;;25.10;18.83;;;;;;;16.76;100.00;97294.59;4997117;28;20081;-58
2021/10/08 08:52:34;;;;;;;26.00;19.05;;;;;;;16.68;100.00;97300.69;5001502;28;20081;-55
2021/10/08 08:55:03;;;;;;;25.88;18.60;;;;;;;16.84;100.00;97292.78;4994793;28;20064;-59
2021/10/08 08:57:31;;;;;;;29.38;19.38;;;;;;;16.74;100.00;97299.22;5000360;28;20077;-59
2021/10/08 09:00:01;;;;;;;28.50;20.00;;;;;;;17.30;100.00;97295.81;4997197;28;20062;-57
2021/10/08 09:02:32;;;;;;;24.48;18.60;;;;;;;17.19;100.00;97290.81;4997605;28;20073;-52
2021/10/08 09:05:01;;;;;;;24.67;17.92;;;;;;;17.02;100.00;97297.97;5000419;28;20077;-55
2021/10/08 09:07:34;;;;;;;23.85;18.17;;;;;;;17.04;100.00;97289.81;5000068;28;20078;-50
2021/10/08 09:10:14;;;;;;;22.60;17.73;;;;;;;17.60;100.00;97288.16;4998518;28;20073;-57
2021/10/08 09:12:44;;;;;;;23.65;17.40;;;;;;;17.22;100.00;97289.66;5005439;28;20457;-55
2021/10/08 09:15:13;;;;;;;23.27;17.07;;;;;;;17.60;100.00;97288.16;5000514;28;20466;-60
2021/10/08 09:17:43;;;;;;;23.23;16.27;;;;;;;17.09;100.00;97292.81;5001236;28;20069;-60
2021/10/08 09:20:12;;;;;;;22.67;17.02;;;;;;;17.37;100.00;97287.97;4995141;28;20477;-56
2021/10/08 09:22:52;;;;;;;24.60;17.42;;;;;;;17.20;100.00;97289.81;4999520;28;20081;-59
2021/10/08 09:25:24;;;;;;;26.40;17.73;;;;;;;17.46;100.00;97286.16;4998985;28;20477;-58
2021/10/08 09:27:54;;;;;;;22.95;17.17;;;;;;;17.23;100.00;97284.16;4999026;28;20461;-57
2021/10/08 09:30:26;;;;;;;21.67;16.30;;;;;;;17.36;100.00;97289.00;4996259;28;20559;-55
2021/10/08 09:32:57;;;;;;;23.92;17.45;;;;;;;17.28;100.00;97284.50;4995837;28;20391;-58
2021/10/08 09:35:26;;;;;;;21.33;16.73;;;;;;;16.89;100.00;97286.94;4996890;28;20150;-57
2021/10/08 09:37:57;;;;;;;19.35;15.10;;;;;;;17.36;100.00;97282.84;5000183;28;20100;-59
2021/10/08 09:40:29;;;;;;;19.52;15.63;;;;;;;17.56;100.00;97273.50;4996391;28;20061;-59
2021/10/08 09:43:01;;;;;;;19.58;14.68;;;;;;;17.46;100.00;97276.31;5005819;28;21458;-57
2021/10/08 09:45:52;;;;;;;19.10;15.35;;;;;;;17.51;100.00;97276.63;4996779;28;20069;-59
2021/10/08 09:48:23;;;;;;;19.75;13.93;;;;;;;17.89;100.00;97271.59;4997782;28;20136;-59
2021/10/08 09:51:03;;;;;;;17.70;13.43;;;;;;;18.53;100.00;97270.72;5005476;28;20062;-58
2021/10/08 09:53:32;;;;;;;;;;;;;;;18.50;100.00;97263.88;5000587;28;20073;-57
2021/10/08 09:56:00;;;;;;;16.42;13.32;;;;;;;18.97;100.00;97266.47;4998059;28;19953;-60
2021/10/08 09:58:50;;;;;;;15.98;12.68;;;;;;;18.58;100.00;97274.53;5000872;28;20088;-53
2021/10/08 10:01:25;;;;;;;15.87;12.23;;;;;;;19.29;100.00;97264.56;5000278;28;20058;-55
2021/10/08 10:03:55;;;;;;;16.30;12.45;;;;;;;19.06;100.00;97272.59;5005670;28;20096;-57
2021/10/08 10:06:24;;;;;;;;;;;;;;;18.84;100.00;97260.06;5005894;28;20069;-59
2021/10/08 10:08:52;;;;;;;13.50;11.57;;;;;;;18.33;100.00;97267.63;5000488;28;19967;-59
2021/10/08 10:11:23;;;;;;;14.00;11.45;;;;;;;18.05;100.00;97267.25;5001842;28;20070;-59
2021/10/08 10:13:55;;;;;;;14.30;11.30;;;;;;;18.68;100.00;97264.44;5005205;28;20089;-59
2021/10/08 10:16:25;;;;;;;15.55;11.15;;;;;;;18.50;100.00;97261.22;5005025;28;21409;-56
2021/10/08 10:18:56;;;;;;;14.98;11.85;;;;;;;17.75;100.00;97270.44;5006424;28;20073;-54
2021/10/08 10:21:27;;;;;;;14.75;11.48;;;;;;;18.08;100.00;97259.72;5006645;28;20065;-53
2021/10/08 10:23:56;;;;;;;14.18;11.30;;;;;;;18.29;100.00;97266.31;4998352;28;20544;-57
2021/10/08 10:26:26;;;;;;;16.35;11.98;;;;;;;19.09;100.00;97264.22;5001170;28;20088;-56
2021/10/08 10:28:55;;;;;;;14.43;11.07;;;;;;;18.80;100.00;97259.56;5006537;28;20487;-55
2021/10/08 10:31:23;;;;;;;15.80;11.50;;;;;;;18.85;100.00;97259.88;5000675;28;20592;-59
2021/10/08 10:34:00;;;;;;;13.40;11.07;;;;;;;18.88;100.00;97269.38;5002056;28;20484;-57
2021/10/08 10:36:29;;;;;;;14.98;12.23;;;;;;;18.80;100.00;97267.59;5003626;28;20065;-60
2021/10/08 10:39:16;;;;;;;13.57;11.90;;;;;;;18.47;100.00;97262.38;5003954;28;20559;-52
2021/10/08 10:41:47;;;;;;;15.10;12.32;;;;;;;18.66;100.00;97258.47;5001603;28;20070;-51
2021/10/08 10:44:20;;;;;;;16.15;12.63;;;;;;;18.59;100.00;97262.03;5001510;28;20072;-52
2021/10/08 10:46:56;;;;;;;16.88;12.73;;;;;;;17.94;100.00;97263.94;5004540;28;20074;-54
2021/10/08 10:49:44;;;;;;;15.57;12.15;;;;;;;18.32;100.00;97257.97;5004598;28;20495;-59
2021/10/08 10:52:21;;;;;;;16.73;13.05;;;;;;;18.67;100.00;97261.97;4997142;28;20066;-54
2021/10/08 10:55:09;;;;;;;18.42;13.50;;;;;;;19.30;100.00;97260.03;4998678;28;20065;-55
2021/10/08 10:57:50;;;;;;;17.38;13.65;;;;;;;19.14;100.00;97258.34;4999422;28;20421;-59
2021/10/08 11:00:25;;;;;;;16.83;12.48;;;;;;;20.18;100.00;97258.53;4996461;28;20069;-53
2021/10/08 11:03:04;;;;;;;14.80;11.48;;;;;;;20.27;100.00;97250.22;4996195;28;20087;-58
2021/10/08 11:05:37;;;;;;;14.02;11.43;;;;;;;20.23;100.00;97245.41;5004665;28;20073;-55
2021/10/08 11:08:11;;;;;;;16.05;13.00;;;;;;;20.16;100.00;97258.72;5000519;28;20084;-53
2021/10/08 11:10:41;;;;;;;15.32;11.35;;;;;;;20.12;100.00;97258.25;5005131;28;20089;-53
2021/10/08 11:13:28;;;;;;;;;;;;;;;20.45;100.00;97254.38;5001507;28;20069;-60
2021/10/08 11:15:59;;;;;;;13.77;11.18;;;;;;;20.43;100.00;97243.81;5007175;28;19964;-54
2021/10/08 11:18:45;;;;;;;14.20;10.90;;;;;;;20.12;100.00;97242.19;5002494;28;20064;-57
2021/10/08 11:21:51;;;;;;;13.18;10.70;;;;;;;19.78;100.00;97249.94;5000530;28;20134;-57